createdAt,value
2017-11-17T00:00:27.256Z,9.12
2017-11-17T00:01:26.585Z,9.10
2017-11-17T00:02:26.552Z,9.16
2017-11-17T00:03:26.527Z,9.10
2017-11-17T00:04:26.499Z,9.10
2017-11-17T00:05:26.478Z,9.01
2017-11-17T00:06:26.457Z,8.96
2017-11-17T00:07:26.415Z,9.03
2017-11-17T00:08:26.391Z,9.16
2017-11-17T00:09:26.359Z,8.98
2017-11-17T00:10:26.330Z,8.98
2017-11-17T00:11:26.299Z,9.01
2017-11-17T00:12:26.295Z,9.08
2017-11-17T00:13:26.249Z,8.98
2017-11-17T00:14:26.222Z,8.97
2017-11-17T00:15:26.195Z,9.03
2017-11-17T00:16:26.163Z,9.01
2017-11-17T00:17:26.135Z,8.93
2017-11-17T00:18:26.361Z,9.03
2017-11-17T00:19:26.078Z,9.03
2017-11-17T00:20:26.056Z,8.91
2017-11-17T00:21:26.030Z,8.96
2017-11-17T00:22:26.008Z,8.93
2017-11-17T00:23:25.971Z,8.94
2017-11-17T00:24:25.943Z,9.00
2017-11-17T00:25:25.914Z,8.89
2017-11-17T00:26:25.889Z,8.94
2017-11-17T00:27:25.860Z,8.86
2017-11-17T00:28:25.830Z,8.82
2017-11-17T00:29:25.806Z,8.78
2017-11-17T00:30:26.077Z,8.78
2017-11-17T00:31:25.749Z,8.83
2017-11-17T00:32:25.717Z,8.82
2017-11-17T00:33:25.693Z,8.79
2017-11-17T00:34:25.669Z,8.80
2017-11-17T00:35:25.634Z,8.89
2017-11-17T00:36:25.864Z,8.85
2017-11-17T00:37:25.584Z,8.75
2017-11-17T00:38:25.550Z,8.91
2017-11-17T00:39:25.523Z,8.79
2017-11-17T00:40:25.496Z,8.76
2017-11-17T00:41:25.475Z,8.75
2017-11-17T00:42:25.443Z,8.76
2017-11-17T00:43:25.416Z,8.78
2017-11-17T00:44:25.392Z,8.78
2017-11-17T00:45:25.365Z,8.80
2017-11-17T00:46:25.326Z,8.80
2017-11-17T00:47:25.303Z,8.75
2017-11-17T00:48:25.274Z,8.75
2017-11-17T00:49:25.251Z,8.75
2017-11-17T00:50:25.219Z,8.76
2017-11-17T00:51:25.192Z,8.78
2017-11-17T00:52:25.162Z,8.79
2017-11-17T00:53:25.139Z,8.82
2017-11-17T00:54:25.104Z,8.79
2017-11-17T00:55:25.083Z,8.79
2017-11-17T00:56:25.059Z,8.80
2017-11-17T00:57:25.027Z,8.75
2017-11-17T00:58:24.996Z,8.75
2017-11-17T00:59:24.969Z,8.63
2017-11-17T01:00:25.289Z,8.75
2017-11-17T01:01:24.906Z,8.63
2017-11-17T01:02:24.878Z,8.60
2017-11-17T01:03:24.851Z,8.64
2017-11-17T01:04:24.829Z,8.61
2017-11-17T01:05:24.802Z,8.64
2017-11-17T01:06:25.016Z,8.67
2017-11-17T01:07:24.737Z,8.63
2017-11-17T01:08:24.709Z,8.58
2017-11-17T01:09:24.684Z,8.63
2017-11-17T01:10:24.654Z,8.63
2017-11-17T01:11:24.625Z,8.58
2017-11-17T01:12:24.601Z,8.43
2017-11-17T01:13:24.590Z,8.49
2017-11-17T01:14:24.547Z,8.54
2017-11-17T01:15:24.522Z,8.46
2017-11-17T01:16:24.488Z,8.46
2017-11-17T01:17:24.456Z,8.42
2017-11-17T01:18:24.441Z,8.45
2017-11-17T01:19:24.405Z,8.50
2017-11-17T01:20:24.373Z,8.45
2017-11-17T01:21:24.346Z,8.43
2017-11-17T01:22:24.321Z,8.31
2017-11-17T01:23:24.289Z,8.24
2017-11-17T01:24:24.567Z,8.34
2017-11-17T01:25:24.235Z,8.25
2017-11-17T01:26:24.200Z,8.32
2017-11-17T01:27:24.177Z,8.36
2017-11-17T01:28:24.148Z,8.29
2017-11-17T01:29:24.114Z,8.37
2017-11-17T01:30:24.348Z,8.34
2017-11-17T01:31:24.063Z,8.28
2017-11-17T01:32:24.039Z,8.28
2017-11-17T01:33:24.008Z,8.31
2017-11-17T01:34:23.972Z,8.24
2017-11-17T01:35:23.948Z,8.14
2017-11-17T01:36:23.926Z,8.18
2017-11-17T01:37:23.895Z,8.10
2017-11-17T01:38:23.864Z,8.20
2017-11-17T01:39:23.838Z,8.20
2017-11-17T01:40:24.058Z,8.17
2017-11-17T01:41:23.784Z,8.20
2017-11-17T01:42:23.750Z,8.17
2017-11-17T01:43:23.720Z,8.07
2017-11-17T01:44:23.693Z,8.10
2017-11-17T01:45:23.685Z,8.06
2017-11-17T01:46:23.634Z,8.12
2017-11-17T01:47:23.609Z,8.06
2017-11-17T01:48:23.575Z,7.91
2017-11-17T01:49:23.555Z,7.91
2017-11-17T01:50:23.517Z,7.88
2017-11-17T01:51:23.493Z,7.86
2017-11-17T01:52:23.464Z,7.95
2017-11-17T01:53:23.437Z,7.94
2017-11-17T01:54:23.403Z,7.94
2017-11-17T01:55:23.390Z,7.92
2017-11-17T01:56:23.350Z,7.91
2017-11-17T01:57:23.319Z,7.92
2017-11-17T01:58:23.540Z,7.92
2017-11-17T01:59:23.264Z,7.94
2017-11-17T02:00:23.230Z,8.02
2017-11-17T02:01:23.207Z,7.89
2017-11-17T02:02:23.173Z,7.77
2017-11-17T02:03:23.176Z,7.86
2017-11-17T02:04:23.482Z,7.79
2017-11-17T02:05:23.091Z,7.81
2017-11-17T02:06:23.063Z,7.79
2017-11-17T02:07:23.039Z,7.79
2017-11-17T02:08:23.001Z,7.81
2017-11-17T02:09:22.978Z,7.76
2017-11-17T02:10:22.949Z,7.73
2017-11-17T02:11:22.918Z,7.76
2017-11-17T02:12:22.888Z,7.77
2017-11-17T02:13:22.864Z,7.63
2017-11-17T02:14:22.835Z,7.74
2017-11-17T02:15:22.806Z,7.69
2017-11-17T02:16:22.773Z,7.73
2017-11-17T02:17:22.745Z,7.74
2017-11-17T02:18:22.721Z,7.58
2017-11-17T02:19:22.697Z,7.69
2017-11-17T02:20:22.660Z,7.63
2017-11-17T02:21:22.630Z,7.62
2017-11-17T02:22:22.902Z,7.66
2017-11-17T02:23:22.574Z,7.66
2017-11-17T02:24:22.543Z,7.52
2017-11-17T02:25:22.515Z,7.50
2017-11-17T02:26:22.481Z,7.50
2017-11-17T02:27:22.457Z,7.58
2017-11-17T02:28:22.428Z,7.45
2017-11-17T02:29:22.400Z,7.57
2017-11-17T02:30:22.374Z,7.55
2017-11-17T02:31:22.339Z,7.54
2017-11-17T02:32:22.309Z,7.47
2017-11-17T02:33:22.289Z,7.50
2017-11-17T02:34:22.556Z,7.47
2017-11-17T02:35:22.223Z,7.47
2017-11-17T02:36:22.202Z,7.44
2017-11-17T02:37:22.180Z,7.41
2017-11-17T02:38:22.210Z,7.45
2017-11-17T02:39:22.109Z,7.44
2017-11-17T02:40:22.332Z,7.47
2017-11-17T02:41:22.050Z,7.37
2017-11-17T02:42:22.025Z,7.33
2017-11-17T02:43:21.988Z,7.33
2017-11-17T02:44:21.966Z,7.45
2017-11-17T02:45:21.937Z,7.47
2017-11-17T02:46:21.910Z,7.57
2017-11-17T02:47:21.877Z,7.48
2017-11-17T02:48:21.851Z,7.42
2017-11-17T02:49:21.818Z,7.44
2017-11-17T02:50:21.787Z,7.51
2017-11-17T02:51:22.062Z,7.41
2017-11-17T02:52:21.728Z,7.41
2017-11-17T02:53:21.708Z,7.41
2017-11-17T02:54:21.681Z,7.37
2017-11-17T02:55:21.647Z,7.34
2017-11-17T02:56:21.613Z,7.34
2017-11-17T02:57:21.585Z,7.30
2017-11-17T02:58:21.565Z,7.36
2017-11-17T02:59:21.536Z,7.29
2017-11-17T03:00:21.498Z,7.34
2017-11-17T03:01:21.467Z,7.37
2017-11-17T03:02:21.441Z,7.29
2017-11-17T03:03:21.717Z,7.33
2017-11-17T03:04:21.383Z,7.34
2017-11-17T03:05:21.355Z,7.34
2017-11-17T03:06:21.326Z,7.36
2017-11-17T03:07:21.300Z,7.27
2017-11-17T03:08:21.274Z,7.33
2017-11-17T03:09:21.837Z,7.24
2017-11-17T03:10:21.212Z,7.16
2017-11-17T03:11:21.180Z,7.24
2017-11-17T03:12:21.151Z,7.26
2017-11-17T03:13:21.121Z,7.19
2017-11-17T03:14:21.095Z,7.18
2017-11-17T03:15:21.316Z,7.41
2017-11-17T03:16:21.035Z,7.23
2017-11-17T03:17:21.011Z,7.26
2017-11-17T03:18:20.976Z,7.12
2017-11-17T03:19:20.952Z,7.21
2017-11-17T03:20:20.924Z,7.16
2017-11-17T03:21:20.888Z,7.21
2017-11-17T03:22:20.861Z,7.21
2017-11-17T03:23:20.835Z,7.19
2017-11-17T03:24:20.801Z,7.15
2017-11-17T03:25:20.774Z,7.16
2017-11-17T03:26:20.744Z,7.11
2017-11-17T03:27:20.708Z,7.09
2017-11-17T03:28:20.683Z,7.04
2017-11-17T03:29:20.662Z,7.09
2017-11-17T03:30:20.629Z,7.16
2017-11-17T03:31:20.610Z,7.01
2017-11-17T03:32:20.576Z,7.07
2017-11-17T03:33:20.537Z,7.04
2017-11-17T03:34:20.517Z,7.04
2017-11-17T03:35:20.482Z,7.08
2017-11-17T03:36:20.449Z,7.00
2017-11-17T03:37:20.421Z,6.94
2017-11-17T03:38:20.397Z,6.97
2017-11-17T03:39:20.370Z,7.08
2017-11-17T03:40:20.336Z,7.07
2017-11-17T03:41:20.299Z,7.05
2017-11-17T03:42:20.276Z,7.05
2017-11-17T03:43:20.248Z,6.94
2017-11-17T03:44:20.217Z,6.93
2017-11-17T03:45:20.440Z,6.96
2017-11-17T03:46:20.163Z,6.99
2017-11-17T03:47:20.125Z,7.05
2017-11-17T03:48:20.105Z,6.94
2017-11-17T03:49:20.069Z,6.93
2017-11-17T03:50:20.035Z,6.96
2017-11-17T03:51:20.010Z,6.93
2017-11-17T03:52:19.981Z,6.90
2017-11-17T03:53:19.947Z,6.87
2017-11-17T03:54:19.925Z,6.83
2017-11-17T03:55:19.892Z,6.83
2017-11-17T03:56:19.864Z,6.82
2017-11-17T03:57:19.834Z,6.81
2017-11-17T03:58:19.806Z,6.81
2017-11-17T03:59:19.772Z,6.81
2017-11-17T04:00:19.746Z,6.86
2017-11-17T04:01:19.719Z,6.83
2017-11-17T04:02:19.987Z,6.81
2017-11-17T04:03:19.656Z,6.76
2017-11-17T04:04:19.626Z,6.82
2017-11-17T04:05:19.601Z,6.83
2017-11-17T04:06:19.568Z,6.87
2017-11-17T04:07:19.538Z,6.83
2017-11-17T04:08:19.519Z,6.82
2017-11-17T04:09:19.493Z,6.81
2017-11-17T04:10:19.458Z,6.79
2017-11-17T04:11:19.421Z,6.72
2017-11-17T04:12:19.393Z,6.90
2017-11-17T04:13:19.365Z,6.71
2017-11-17T04:14:19.339Z,6.79
2017-11-17T04:15:19.312Z,6.68
2017-11-17T04:16:19.273Z,6.79
2017-11-17T04:17:19.253Z,6.68
2017-11-17T04:18:19.219Z,6.63
2017-11-17T04:19:19.184Z,6.64
2017-11-17T04:20:19.408Z,6.64
2017-11-17T04:21:19.131Z,6.64
2017-11-17T04:22:19.101Z,6.63
2017-11-17T04:23:19.070Z,6.68
2017-11-17T04:24:19.041Z,6.72
2017-11-17T04:25:19.018Z,6.65
2017-11-17T04:26:18.984Z,6.68
2017-11-17T04:27:18.956Z,6.65
2017-11-17T04:28:18.922Z,6.69
2017-11-17T04:29:18.895Z,6.63
2017-11-17T04:30:18.866Z,6.58
2017-11-17T04:31:19.130Z,6.60
2017-11-17T04:32:18.807Z,6.50
2017-11-17T04:33:18.772Z,6.53
2017-11-17T04:34:18.742Z,6.55
2017-11-17T04:35:18.720Z,6.50
2017-11-17T04:36:18.686Z,6.57
2017-11-17T04:37:18.670Z,6.57
2017-11-17T04:38:18.633Z,6.53
2017-11-17T04:39:18.603Z,6.42
2017-11-17T04:40:18.565Z,6.53
2017-11-17T04:41:18.545Z,6.51
2017-11-17T04:42:18.511Z,6.40
2017-11-17T04:43:18.483Z,6.35
2017-11-17T04:44:18.451Z,6.39
2017-11-17T04:45:18.429Z,6.32
2017-11-17T04:46:18.392Z,6.43
2017-11-17T04:47:18.363Z,6.33
2017-11-17T04:48:18.337Z,6.35
2017-11-17T04:49:18.605Z,6.39
2017-11-17T04:50:18.274Z,6.36
2017-11-17T04:51:18.245Z,6.38
2017-11-17T04:52:18.215Z,6.28
2017-11-17T04:53:18.184Z,6.28
2017-11-17T04:54:18.160Z,6.39
2017-11-17T04:55:18.381Z,6.38
2017-11-17T04:56:18.103Z,6.40
2017-11-17T04:57:18.066Z,6.38
2017-11-17T04:58:18.039Z,6.38
2017-11-17T04:59:18.009Z,6.38
2017-11-17T05:00:17.977Z,6.39
2017-11-17T05:01:17.961Z,6.39
2017-11-17T05:02:17.919Z,6.32
2017-11-17T05:03:17.886Z,6.39
2017-11-17T05:04:17.864Z,6.35
2017-11-17T05:05:17.828Z,6.28
2017-11-17T05:06:17.804Z,6.33
2017-11-17T05:07:17.773Z,6.19
2017-11-17T05:08:17.737Z,6.38
2017-11-17T05:09:17.711Z,6.28
2017-11-17T05:10:17.679Z,6.35
2017-11-17T05:11:17.664Z,6.40
2017-11-17T05:12:17.634Z,6.36
2017-11-17T05:13:17.596Z,6.38
2017-11-17T05:14:17.561Z,6.32
2017-11-17T05:15:17.536Z,6.33
2017-11-17T05:16:17.500Z,6.35
2017-11-17T05:17:17.472Z,6.25
2017-11-17T05:18:17.451Z,6.33
2017-11-17T05:19:17.422Z,6.25
2017-11-17T05:20:17.388Z,6.30
2017-11-17T05:21:17.359Z,6.25
2017-11-17T05:22:17.325Z,6.14
2017-11-17T05:23:17.293Z,6.13
2017-11-17T05:24:17.273Z,6.10
2017-11-17T05:25:17.242Z,6.21
2017-11-17T05:26:17.210Z,6.19
2017-11-17T05:27:17.177Z,6.17
2017-11-17T05:28:17.143Z,6.28
2017-11-17T05:29:17.122Z,6.24
2017-11-17T05:30:17.099Z,6.21
2017-11-17T05:31:17.060Z,6.14
2017-11-17T05:32:17.032Z,6.24
2017-11-17T05:33:17.007Z,6.21
2017-11-17T05:34:16.974Z,6.10
2017-11-17T05:35:16.940Z,6.13
2017-11-17T05:36:16.911Z,6.14
2017-11-17T05:37:16.878Z,6.20
2017-11-17T05:38:16.853Z,6.02
2017-11-17T05:39:16.832Z,6.06
2017-11-17T05:40:16.798Z,6.06
2017-11-17T05:41:16.759Z,6.02
2017-11-17T05:42:16.980Z,6.03
2017-11-17T05:43:16.704Z,5.99
2017-11-17T05:44:16.675Z,6.06
2017-11-17T05:45:16.643Z,6.02
2017-11-17T05:46:16.612Z,5.98
2017-11-17T05:47:16.586Z,5.98
2017-11-17T05:48:16.868Z,5.98
2017-11-17T05:49:16.527Z,5.98
2017-11-17T05:50:16.492Z,5.90
2017-11-17T05:51:16.469Z,6.08
2017-11-17T05:52:16.438Z,5.98
2017-11-17T05:53:16.406Z,6.05
2017-11-17T05:54:16.373Z,6.02
2017-11-17T05:55:16.348Z,6.01
2017-11-17T05:56:16.317Z,6.06
2017-11-17T05:57:16.285Z,5.92
2017-11-17T05:58:16.253Z,6.03
2017-11-17T05:59:16.484Z,5.93
2017-11-17T06:00:16.195Z,5.92
2017-11-17T06:01:16.164Z,5.96
2017-11-17T06:02:16.139Z,5.99
2017-11-17T06:03:16.113Z,5.96
2017-11-17T06:04:16.078Z,5.90
2017-11-17T06:05:16.349Z,5.96
2017-11-17T06:06:16.021Z,5.90
2017-11-17T06:07:15.987Z,5.92
2017-11-17T06:08:15.957Z,5.88
2017-11-17T06:09:15.938Z,5.90
2017-11-17T06:10:15.902Z,5.95
2017-11-17T06:11:15.878Z,5.90
2017-11-17T06:12:15.841Z,5.98
2017-11-17T06:13:15.811Z,6.02
2017-11-17T06:14:15.777Z,6.03
2017-11-17T06:15:15.755Z,5.99
2017-11-17T06:16:15.718Z,6.17
2017-11-17T06:17:15.700Z,6.01
2017-11-17T06:18:15.666Z,6.11
2017-11-17T06:19:15.636Z,6.02
2017-11-17T06:20:15.610Z,6.03
2017-11-17T06:21:15.576Z,6.11
2017-11-17T06:22:15.545Z,6.14
2017-11-17T06:23:15.513Z,6.13
2017-11-17T06:24:15.479Z,6.01
2017-11-17T06:25:15.458Z,6.05
2017-11-17T06:26:15.430Z,6.02
2017-11-17T06:27:15.390Z,6.08
2017-11-17T06:28:15.365Z,6.06
2017-11-17T06:29:15.340Z,6.08
2017-11-17T06:30:15.307Z,6.03
2017-11-17T06:31:15.276Z,6.08
2017-11-17T06:32:15.248Z,6.05
2017-11-17T06:33:15.213Z,6.03
2017-11-17T06:34:15.195Z,6.03
2017-11-17T06:35:15.151Z,6.06
2017-11-17T06:36:15.124Z,5.95
2017-11-17T06:37:15.092Z,5.99
2017-11-17T06:38:15.064Z,5.99
2017-11-17T06:39:15.036Z,6.05
2017-11-17T06:40:15.005Z,6.05
2017-11-17T06:41:14.973Z,6.02
2017-11-17T06:42:14.942Z,6.03
2017-11-17T06:43:14.917Z,6.02
2017-11-17T06:44:14.881Z,5.95
2017-11-17T06:45:14.856Z,5.98
2017-11-17T06:46:14.828Z,5.95
2017-11-17T06:47:14.792Z,5.92
2017-11-17T06:48:14.771Z,6.01
2017-11-17T06:49:14.743Z,5.92
2017-11-17T06:50:14.710Z,5.98
2017-11-17T06:51:14.685Z,5.93
2017-11-17T06:52:14.645Z,5.93
2017-11-17T06:53:14.621Z,5.93
2017-11-17T06:54:14.587Z,5.92
2017-11-17T06:55:14.557Z,5.95
2017-11-17T06:56:14.524Z,5.93
2017-11-17T06:57:14.501Z,5.98
2017-11-17T06:58:14.468Z,5.88
2017-11-17T06:59:14.439Z,5.88
2017-11-17T07:00:14.405Z,5.92
2017-11-17T07:01:14.388Z,5.99
2017-11-17T07:02:14.354Z,5.95
2017-11-17T07:03:14.324Z,5.99
2017-11-17T07:04:14.884Z,6.06
2017-11-17T07:05:14.255Z,6.14
2017-11-17T07:06:14.230Z,6.10
2017-11-17T07:07:14.219Z,6.20
2017-11-17T07:08:14.175Z,6.36
2017-11-17T07:09:14.136Z,6.40
2017-11-17T07:10:14.207Z,6.53
2017-11-17T07:11:14.087Z,6.55
2017-11-17T07:12:14.052Z,6.63
2017-11-17T07:13:14.023Z,6.76
2017-11-17T07:14:13.992Z,6.73
2017-11-17T07:15:13.968Z,6.81
2017-11-17T07:16:13.932Z,6.78
2017-11-17T07:17:13.900Z,6.93
2017-11-17T07:18:13.884Z,6.91
2017-11-17T07:19:13.849Z,6.87
2017-11-17T07:20:13.821Z,7.04
2017-11-17T07:21:13.792Z,7.04
2017-11-17T07:22:13.755Z,7.12
2017-11-17T07:23:13.735Z,7.19
2017-11-17T07:24:13.699Z,7.15
2017-11-17T07:25:13.667Z,7.34
2017-11-17T07:26:13.639Z,7.34
2017-11-17T07:27:13.610Z,7.36
2017-11-17T07:28:13.582Z,7.48
2017-11-17T07:29:13.571Z,7.58
2017-11-17T07:30:13.527Z,7.47
2017-11-17T07:31:13.498Z,7.66
2017-11-17T07:32:13.476Z,7.71
2017-11-17T07:33:13.440Z,7.62
2017-11-17T07:34:13.406Z,7.89
2017-11-17T07:35:13.380Z,7.91
2017-11-17T07:36:13.355Z,7.96
2017-11-17T07:37:13.319Z,7.89
2017-11-17T07:38:13.302Z,7.99
2017-11-17T07:39:14.064Z,8.28
2017-11-17T07:40:13.234Z,8.28
2017-11-17T07:41:13.209Z,8.25
2017-11-17T07:42:13.176Z,8.31
2017-11-17T07:43:13.148Z,8.17
2017-11-17T07:44:13.126Z,8.22
2017-11-17T07:45:13.095Z,8.17
2017-11-17T07:46:13.062Z,8.10
2017-11-17T07:47:13.032Z,8.27
2017-11-17T07:48:13.008Z,8.18
2017-11-17T07:49:12.979Z,8.37
2017-11-17T07:50:12.945Z,8.21
2017-11-17T07:51:12.913Z,8.29
2017-11-17T07:52:12.890Z,8.32
2017-11-17T07:53:12.858Z,8.46
2017-11-17T07:54:12.835Z,8.31
2017-11-17T07:55:12.819Z,8.57
2017-11-17T07:56:12.782Z,8.49
2017-11-17T07:57:13.000Z,8.61
2017-11-17T07:58:12.727Z,8.70
2017-11-17T07:59:12.699Z,8.75
2017-11-17T08:00:12.673Z,8.49
2017-11-17T08:01:12.643Z,8.63
2017-11-17T08:02:12.602Z,8.75
2017-11-17T08:03:12.581Z,8.49
2017-11-17T08:04:12.553Z,8.68
2017-11-17T08:05:12.531Z,8.83
2017-11-17T08:06:12.502Z,8.75
2017-11-17T08:07:12.465Z,8.80
2017-11-17T08:08:12.442Z,8.82
2017-11-17T08:09:12.707Z,8.85
2017-11-17T08:10:12.390Z,8.97
2017-11-17T08:11:12.361Z,8.80
2017-11-17T08:12:12.341Z,8.97
2017-11-17T08:13:12.297Z,9.26
2017-11-17T08:14:12.278Z,9.48
2017-11-17T08:15:12.246Z,9.35
2017-11-17T08:16:12.218Z,9.38
2017-11-17T08:17:12.196Z,9.44
2017-11-17T08:18:12.162Z,9.30
2017-11-17T08:19:12.134Z,9.38
2017-11-17T08:20:12.110Z,9.50
2017-11-17T08:21:12.080Z,9.45
2017-11-17T08:22:12.052Z,9.27
2017-11-17T08:23:12.029Z,9.65
2017-11-17T08:24:12.000Z,9.99
2017-11-17T08:25:11.969Z,10.06
2017-11-17T08:26:11.946Z,10.44
2017-11-17T08:27:11.918Z,10.54
2017-11-17T08:28:11.887Z,10.06
2017-11-17T08:29:11.865Z,9.83
2017-11-17T08:30:11.836Z,9.83
2017-11-17T08:31:11.819Z,9.88
2017-11-17T08:32:11.782Z,10.34
2017-11-17T08:33:11.863Z,10.65
2017-11-17T08:34:11.726Z,10.62
2017-11-17T08:35:11.705Z,10.63
2017-11-17T08:36:11.679Z,11.01
2017-11-17T08:37:11.648Z,10.20
2017-11-17T08:38:11.917Z,10.43
2017-11-17T08:39:11.593Z,10.51
2017-11-17T08:40:11.566Z,10.81
2017-11-17T08:41:11.532Z,10.63
2017-11-17T08:42:11.515Z,10.81
2017-11-17T08:43:11.484Z,10.07
2017-11-17T08:44:11.458Z,10.02
2017-11-17T08:45:11.437Z,9.81
2017-11-17T08:46:11.405Z,9.83
2017-11-17T08:47:11.387Z,10.25
2017-11-17T08:48:11.358Z,10.10
2017-11-17T08:49:11.324Z,10.22
2017-11-17T08:50:11.301Z,10.28
2017-11-17T08:51:11.276Z,10.18
2017-11-17T08:52:11.247Z,10.54
2017-11-17T08:53:11.222Z,9.74
2017-11-17T08:54:11.226Z,9.70
2017-11-17T08:55:11.176Z,10.14
2017-11-17T08:56:11.150Z,10.43
2017-11-17T08:57:11.136Z,10.29
2017-11-17T08:58:11.086Z,9.88
2017-11-17T08:59:11.065Z,9.49
2017-11-17T09:00:11.039Z,9.89
2017-11-17T09:01:11.016Z,9.86
2017-11-17T09:02:10.986Z,9.98
2017-11-17T09:03:10.962Z,10.17
2017-11-17T09:04:10.935Z,10.31
2017-11-17T09:05:10.901Z,10.31
2017-11-17T09:06:10.884Z,10.57
2017-11-17T09:07:10.857Z,10.58
2017-11-17T09:08:10.928Z,10.69
2017-11-17T09:09:10.801Z,11.05
2017-11-17T09:10:10.787Z,10.69
2017-11-17T09:11:10.757Z,10.25
2017-11-17T09:12:10.725Z,10.29
2017-11-17T09:13:10.708Z,10.51
2017-11-17T09:14:10.676Z,10.52
2017-11-17T09:15:10.644Z,10.70
2017-11-17T09:16:10.625Z,10.95
2017-11-17T09:17:10.599Z,11.17
2017-11-17T09:18:10.574Z,11.05
2017-11-17T09:19:10.541Z,11.33
2017-11-17T09:20:10.515Z,10.95
2017-11-17T09:21:10.498Z,10.91
2017-11-17T09:22:10.479Z,10.32
2017-11-17T09:23:10.445Z,10.20
2017-11-17T09:24:10.419Z,10.20
2017-11-17T09:25:10.390Z,10.46
2017-11-17T09:26:10.368Z,10.34
2017-11-17T09:27:10.339Z,10.69
2017-11-17T09:28:10.324Z,10.75
2017-11-17T09:29:10.292Z,10.72
2017-11-17T09:30:10.260Z,11.35
2017-11-17T09:31:10.239Z,11.05
2017-11-17T09:32:10.220Z,10.86
2017-11-17T09:33:10.192Z,11.01
2017-11-17T09:34:10.160Z,11.20
2017-11-17T09:35:10.141Z,11.08
2017-11-17T09:36:10.109Z,11.41
2017-11-17T09:37:10.087Z,11.12
2017-11-17T09:38:10.064Z,11.36
2017-11-17T09:39:10.033Z,11.41
2017-11-17T09:40:10.009Z,11.59
2017-11-17T09:41:09.984Z,11.54
2017-11-17T09:42:09.963Z,11.23
2017-11-17T09:43:10.036Z,10.94
2017-11-17T09:44:09.913Z,11.56
2017-11-17T09:45:09.892Z,12.30
2017-11-17T09:46:09.855Z,12.00
2017-11-17T09:47:09.836Z,11.38
2017-11-17T09:48:09.810Z,11.64
2017-11-17T09:49:09.789Z,12.04
2017-11-17T09:50:09.761Z,12.00
2017-11-17T09:51:09.731Z,12.37
2017-11-17T09:52:09.710Z,11.62
2017-11-17T09:53:09.680Z,11.78
2017-11-17T09:54:09.661Z,11.72
2017-11-17T09:55:09.632Z,12.15
2017-11-17T09:56:09.603Z,12.12
2017-11-17T09:57:09.584Z,12.43
2017-11-17T09:58:09.562Z,12.49
2017-11-17T09:59:09.537Z,12.55
2017-11-17T10:00:09.509Z,11.96
2017-11-17T10:01:09.480Z,11.81
2017-11-17T10:02:09.457Z,12.07
2017-11-17T10:03:09.427Z,12.43
2017-11-17T10:04:09.409Z,11.79
2017-11-17T10:05:09.388Z,11.75
2017-11-17T10:06:09.358Z,11.72
2017-11-17T10:07:09.333Z,11.75
2017-11-17T10:08:09.307Z,12.22
2017-11-17T10:09:09.281Z,12.77
2017-11-17T10:10:09.260Z,12.58
2017-11-17T10:11:09.239Z,12.74
2017-11-17T10:12:09.213Z,12.07
2017-11-17T10:13:09.185Z,12.30
2017-11-17T10:14:09.165Z,12.38
2017-11-17T10:15:09.144Z,12.44
2017-11-17T10:16:09.122Z,12.46
2017-11-17T10:17:09.098Z,12.69
2017-11-17T10:18:09.075Z,12.62
2017-11-17T10:19:09.038Z,12.81
2017-11-17T10:20:09.035Z,12.58
2017-11-17T10:21:08.995Z,12.95
2017-11-17T10:22:08.966Z,13.09
2017-11-17T10:23:08.939Z,13.19
2017-11-17T10:24:08.913Z,13.19
2017-11-17T10:25:08.893Z,12.79
2017-11-17T10:26:08.873Z,12.25
2017-11-17T10:27:08.844Z,11.77
2017-11-17T10:28:08.822Z,12.29
2017-11-17T10:29:08.795Z,12.73
2017-11-17T10:30:08.775Z,12.76
2017-11-17T10:31:08.751Z,13.09
2017-11-17T10:32:08.725Z,13.35
2017-11-17T10:33:08.711Z,13.21
2017-11-17T10:34:08.680Z,12.79
2017-11-17T10:35:08.656Z,13.14
2017-11-17T10:36:08.635Z,13.09
2017-11-17T10:37:08.603Z,12.88
2017-11-17T10:38:08.577Z,12.61
2017-11-17T10:39:08.552Z,12.44
2017-11-17T10:40:08.530Z,13.21
2017-11-17T10:41:08.508Z,12.80
2017-11-17T10:42:08.887Z,12.59
2017-11-17T10:43:08.463Z,12.29
2017-11-17T10:44:08.436Z,13.07
2017-11-17T10:45:08.415Z,12.54
2017-11-17T10:46:08.394Z,12.49
2017-11-17T10:47:08.369Z,12.94
2017-11-17T10:48:08.357Z,11.98
2017-11-17T10:49:08.328Z,12.16
2017-11-17T10:50:08.298Z,12.59
2017-11-17T10:51:08.277Z,12.62
2017-11-17T10:52:08.251Z,12.48
2017-11-17T10:53:08.230Z,12.49
2017-11-17T10:54:08.211Z,12.04
2017-11-17T10:55:08.182Z,12.01
2017-11-17T10:56:08.161Z,11.84
2017-11-17T10:57:08.139Z,12.91
2017-11-17T10:58:08.103Z,12.79
2017-11-17T10:59:08.080Z,12.88
2017-11-17T11:00:08.069Z,12.79
2017-11-17T11:01:08.039Z,13.12
2017-11-17T11:02:08.013Z,13.41
2017-11-17T11:03:07.990Z,13.16
2017-11-17T11:04:07.968Z,13.19
2017-11-17T11:05:07.942Z,13.03
2017-11-17T11:06:08.228Z,12.12
2017-11-17T11:07:07.903Z,12.13
2017-11-17T11:08:07.876Z,12.58
2017-11-17T11:09:07.858Z,12.55
2017-11-17T11:10:07.845Z,13.39
2017-11-17T11:11:07.803Z,13.79
2017-11-17T11:12:07.781Z,13.35
2017-11-17T11:13:07.762Z,13.90
2017-11-17T11:14:07.734Z,14.13
2017-11-17T11:15:07.718Z,13.69
2017-11-17T11:16:07.706Z,14.16
2017-11-17T11:17:07.683Z,14.45
2017-11-17T11:18:07.645Z,13.31
2017-11-17T11:19:07.619Z,12.87
2017-11-17T11:20:07.596Z,13.07
2017-11-17T11:21:07.576Z,12.76
2017-11-17T11:22:07.560Z,12.16
2017-11-17T11:23:07.536Z,12.70
2017-11-17T11:24:07.612Z,12.89
2017-11-17T11:25:07.478Z,12.56
2017-11-17T11:26:07.470Z,12.88
2017-11-17T11:27:07.440Z,12.99
2017-11-17T11:28:07.414Z,13.19
2017-11-17T11:29:07.391Z,12.46
2017-11-17T11:30:07.622Z,12.30
2017-11-17T11:31:07.354Z,12.62
2017-11-17T11:32:07.323Z,12.70
2017-11-17T11:33:07.302Z,12.79
2017-11-17T11:34:07.280Z,12.87
2017-11-17T11:35:07.251Z,13.07
2017-11-17T11:36:07.482Z,12.88
2017-11-17T11:37:07.209Z,13.17
2017-11-17T11:38:07.194Z,13.06
2017-11-17T11:39:07.163Z,12.76
2017-11-17T11:40:07.143Z,12.99
2017-11-17T11:41:07.118Z,13.28
2017-11-17T11:42:07.099Z,12.99
2017-11-17T11:43:07.074Z,12.31
2017-11-17T11:44:07.059Z,12.38
2017-11-17T11:45:07.044Z,12.46
2017-11-17T11:46:07.005Z,12.84
2017-11-17T11:47:06.983Z,12.91
2017-11-17T11:48:06.969Z,12.58
2017-11-17T11:49:06.941Z,12.79
2017-11-17T11:50:06.912Z,13.14
2017-11-17T11:51:06.893Z,12.95
2017-11-17T11:52:06.866Z,12.77
2017-11-17T11:53:06.848Z,13.01
2017-11-17T11:54:06.832Z,13.66
2017-11-17T11:55:06.802Z,13.68
2017-11-17T11:56:06.775Z,13.93
2017-11-17T11:57:06.754Z,13.61
2017-11-17T11:58:06.738Z,14.02
2017-11-17T11:59:06.713Z,13.88
2017-11-17T12:00:06.693Z,14.16
2017-11-17T12:01:06.670Z,13.68
2017-11-17T12:02:06.646Z,13.31
2017-11-17T12:03:06.623Z,13.27
2017-11-17T12:04:06.611Z,12.43
2017-11-17T12:05:06.583Z,12.19
2017-11-17T12:06:06.563Z,12.19
2017-11-17T12:07:06.539Z,12.80
2017-11-17T12:08:06.517Z,12.84
2017-11-17T12:09:06.503Z,12.61
2017-11-17T12:10:06.486Z,11.90
2017-11-17T12:11:06.456Z,12.21
2017-11-17T12:12:06.431Z,12.38
2017-11-17T12:13:06.411Z,11.79
2017-11-17T12:14:06.390Z,11.53
2017-11-17T12:15:06.374Z,11.16
2017-11-17T12:16:06.705Z,10.91
2017-11-17T12:17:06.324Z,10.98
2017-11-17T12:18:06.294Z,10.83
2017-11-17T12:19:06.289Z,10.86
2017-11-17T12:20:06.260Z,10.69
2017-11-17T12:21:06.237Z,11.36
2017-11-17T12:22:06.210Z,11.02
2017-11-17T12:23:06.190Z,10.86
2017-11-17T12:24:06.168Z,10.54
2017-11-17T12:25:06.142Z,10.42
2017-11-17T12:26:06.118Z,10.36
2017-11-17T12:27:06.096Z,10.38
2017-11-17T12:28:06.068Z,11.69
2017-11-17T12:29:06.049Z,12.08
2017-11-17T12:30:06.021Z,12.07
2017-11-17T12:31:06.001Z,12.49
2017-11-17T12:32:05.972Z,12.69
2017-11-17T12:33:05.952Z,13.09
2017-11-17T12:34:05.920Z,13.06
2017-11-17T12:35:05.902Z,13.41
2017-11-17T12:36:05.871Z,13.09
2017-11-17T12:37:05.848Z,11.93
2017-11-17T12:38:05.892Z,11.97
2017-11-17T12:39:05.806Z,11.66
2017-11-17T12:40:05.781Z,11.31
2017-11-17T12:41:05.764Z,10.95
2017-11-17T12:42:05.734Z,10.65
2017-11-17T12:43:05.707Z,10.52
2017-11-17T12:44:05.683Z,10.55
2017-11-17T12:45:05.658Z,10.46
2017-11-17T12:46:05.640Z,10.72
2017-11-17T12:47:05.621Z,11.08
2017-11-17T12:48:05.586Z,10.90
2017-11-17T12:49:05.562Z,11.12
2017-11-17T12:50:05.535Z,11.59
2017-11-17T12:51:05.510Z,11.70
2017-11-17T12:52:05.589Z,11.81
2017-11-17T12:53:05.465Z,12.11
2017-11-17T12:54:05.462Z,12.34
2017-11-17T12:55:05.409Z,12.22
2017-11-17T12:56:05.387Z,12.63
2017-11-17T12:57:05.366Z,12.69
2017-11-17T12:58:05.384Z,12.40
2017-11-17T12:59:05.324Z,12.13
2017-11-17T13:00:05.310Z,11.46
2017-11-17T13:01:05.280Z,11.09
2017-11-17T13:02:05.246Z,10.98
2017-11-17T13:03:05.223Z,11.28
2017-11-17T13:04:05.198Z,11.28
2017-11-17T13:05:05.171Z,10.68
2017-11-17T13:06:05.162Z,10.86
2017-11-17T13:07:05.135Z,10.84
2017-11-17T13:08:05.098Z,10.98
2017-11-17T13:09:05.072Z,11.53